createdAt,value
2022-09-20T00:00:18.719Z,3
2022-09-20T00:05:18.760Z,4
2022-09-20T00:10:18.746Z,2
2022-09-20T00:15:18.651Z,3
2022-09-20T00:20:18.607Z,2
2022-09-20T00:25:15.504Z,2
2022-09-20T00:30:15.506Z,3
2022-09-20T00:35:15.887Z,3
2022-09-20T00:40:18.780Z,5
2022-09-20T00:45:18.648Z,5
2022-09-20T00:50:18.746Z,3
2022-09-20T00:55:18.735Z,4
2022-09-20T01:00:18.660Z,2
2022-09-20T01:05:18.748Z,2
2022-09-20T01:10:18.746Z,1
2022-09-20T01:15:18.809Z,1
2022-09-20T01:20:15.611Z,2
2022-09-20T01:25:15.614Z,3
2022-09-20T01:30:18.765Z,4
2022-09-20T01:35:18.858Z,3
2022-09-20T01:40:18.882Z,4
2022-09-20T01:45:18.737Z,5
2022-09-20T01:50:18.742Z,4
2022-09-20T01:55:18.822Z,6
2022-09-20T02:00:18.744Z,5
2022-09-20T02:05:18.864Z,2
2022-09-20T02:10:18.775Z,3
2022-09-20T02:15:15.748Z,3
2022-09-20T02:20:16.080Z,4
2022-09-20T02:25:18.948Z,6
2022-09-20T02:30:18.873Z,7
2022-09-20T02:35:18.862Z,9
2022-09-20T02:40:18.904Z,7
2022-09-20T02:45:18.883Z,6
2022-09-20T02:50:18.806Z,5
2022-09-20T02:55:18.861Z,9
2022-09-20T03:00:18.888Z,10
2022-09-20T03:05:15.749Z,10
2022-09-20T03:10:15.737Z,4
2022-09-20T03:15:18.843Z,4
2022-09-20T03:20:18.957Z,4
2022-09-20T03:25:18.907Z,4
2022-09-20T03:30:18.887Z,2
2022-09-20T03:35:18.944Z,4
2022-09-20T03:40:18.983Z,2
2022-09-20T03:45:18.920Z,3
2022-09-20T03:50:19.038Z,1
2022-09-20T03:55:18.972Z,2
2022-09-20T04:00:20.297Z,3
2022-09-20T04:05:20.293Z,3
2022-09-20T04:10:20.297Z,4
2022-09-20T04:15:20.298Z,2
2022-09-20T04:20:20.303Z,3
2022-09-20T04:25:20.319Z,5
2022-09-20T04:30:17.106Z,4
2022-09-20T04:35:17.079Z,4
2022-09-20T04:40:20.417Z,2
2022-09-20T04:45:20.283Z,4
2022-09-20T04:50:20.223Z,4
2022-09-20T04:55:20.472Z,4
2022-09-20T05:00:20.364Z,3
2022-09-20T05:05:20.284Z,4
2022-09-20T05:10:20.266Z,6
2022-09-20T05:15:20.395Z,3
2022-09-20T05:20:17.197Z,2
2022-09-20T05:25:17.453Z,4
2022-09-20T05:30:20.405Z,2
2022-09-20T05:35:20.465Z,4
2022-09-20T05:40:20.496Z,4
2022-09-20T05:45:20.383Z,1
2022-09-20T05:50:20.339Z,2
2022-09-20T05:55:20.460Z,2
2022-09-20T06:00:20.447Z,2
2022-09-20T06:05:20.441Z,3
2022-09-20T06:10:20.308Z,2
2022-09-20T06:15:17.289Z,2
2022-09-20T06:20:17.310Z,3
2022-09-20T06:25:20.421Z,3
2022-09-20T06:30:20.480Z,4
2022-09-20T06:35:20.402Z,4
2022-09-20T06:40:20.589Z,3
2022-09-20T06:45:20.432Z,3
2022-09-20T06:50:20.422Z,3
2022-09-20T06:55:20.463Z,2
2022-09-20T07:00:20.364Z,1
2022-09-20T07:05:20.463Z,0
2022-09-20T07:10:17.467Z,1
2022-09-20T07:15:17.724Z,2
2022-09-20T07:20:21.532Z,2
2022-09-20T07:25:20.583Z,2
2022-09-20T07:30:20.508Z,1
2022-09-20T07:35:20.551Z,2
2022-09-20T07:40:20.612Z,1
2022-09-20T07:45:20.544Z,2
2022-09-20T07:50:20.618Z,2
2022-09-20T07:55:20.583Z,1
2022-09-20T08:00:17.424Z,1
2022-09-20T08:05:17.387Z,0
2022-09-20T08:10:20.667Z,2
2022-09-20T08:15:20.645Z,3
2022-09-20T08:20:20.792Z,4
2022-09-20T08:25:20.608Z,3
2022-09-20T08:30:23.332Z,2
2022-09-20T08:35:18.615Z,2
2022-09-20T08:40:15.525Z,2
2022-09-20T08:45:34.617Z,3
2022-09-20T08:50:18.552Z,2
2022-09-20T08:55:18.798Z,1
2022-09-20T09:00:18.742Z,1
2022-09-20T09:05:18.654Z,0
2022-09-20T09:10:18.571Z,1
2022-09-20T09:15:18.616Z,0
2022-09-20T09:20:18.619Z,0
2022-09-20T09:25:18.653Z,0
2022-09-20T09:30:18.746Z,0
2022-09-20T09:35:15.598Z,1
2022-09-20T09:40:15.844Z,0
2022-09-20T09:45:18.655Z,1
2022-09-20T09:50:18.656Z,1
2022-09-20T09:55:18.781Z,1
2022-09-20T10:00:21.890Z,0
2022-09-20T10:05:18.682Z,1
2022-09-20T10:10:18.737Z,0
2022-09-20T10:15:18.687Z,0
2022-09-20T10:20:18.624Z,1
2022-09-20T10:25:15.593Z,0
2022-09-20T10:30:15.638Z,0
2022-09-20T10:35:18.765Z,0
2022-09-20T10:40:18.908Z,1
2022-09-20T10:45:42.152Z,0
2022-09-20T10:50:18.654Z,1
2022-09-20T10:55:18.745Z,0
2022-09-20T11:00:18.787Z,0
2022-09-20T11:05:18.909Z,1
2022-09-20T11:10:18.759Z,0
2022-09-20T11:15:18.866Z,0
2022-09-20T11:20:15.679Z,0
2022-09-20T11:25:20.386Z,1
2022-09-20T11:30:18.948Z,1
2022-09-20T11:35:18.837Z,2
2022-09-20T11:40:18.857Z,3
2022-09-20T11:45:18.785Z,1
2022-09-20T11:50:18.855Z,3
2022-09-20T11:55:18.833Z,2
2022-09-20T12:00:18.856Z,1
2022-09-20T12:05:18.897Z,1
2022-09-20T12:10:18.920Z,2
2022-09-20T12:15:15.782Z,1
2022-09-20T12:20:19.316Z,1
2022-09-20T12:25:18.928Z,2
2022-09-20T12:30:18.860Z,1
2022-09-20T12:35:18.917Z,3
2022-09-20T12:40:18.998Z,1
2022-09-20T12:45:18.890Z,1
2022-09-20T12:50:18.945Z,1
2022-09-20T12:55:18.995Z,1
2022-09-20T13:00:18.970Z,0
2022-09-20T13:05:15.855Z,2
2022-09-20T13:10:16.066Z,1
2022-09-20T13:15:18.880Z,2
2022-09-20T13:20:18.871Z,2
2022-09-20T13:25:18.935Z,2
2022-09-20T13:30:18.947Z,1
2022-09-20T13:35:19.141Z,1
2022-09-20T13:40:19.035Z,3
2022-09-20T13:45:19.027Z,1
2022-09-20T13:50:19.114Z,1
2022-09-20T13:55:18.986Z,0
2022-09-20T14:00:15.955Z,1
2022-09-20T14:05:15.851Z,2
2022-09-20T14:10:19.063Z,1
2022-09-20T14:15:18.972Z,3
2022-09-20T14:20:19.067Z,2
2022-09-20T14:25:19.103Z,2
2022-09-20T14:30:18.980Z,2
2022-09-20T14:35:19.130Z,2
2022-09-20T14:40:19.063Z,2
2022-09-20T14:45:19.118Z,1
2022-09-20T14:50:19.115Z,1
2022-09-20T14:55:15.990Z,1
2022-09-20T15:00:19.112Z,1
2022-09-20T15:05:19.137Z,1
2022-09-20T15:10:19.127Z,1
2022-09-20T15:15:19.003Z,5
2022-09-20T15:20:23.757Z,1
2022-09-20T15:25:19.025Z,2
2022-09-20T15:30:19.043Z,1
2022-09-20T15:35:19.009Z,1
2022-09-20T15:40:19.122Z,1
2022-09-20T15:45:16.094Z,1
2022-09-20T15:50:16.070Z,1
2022-09-20T15:55:19.109Z,1
2022-09-20T16:00:19.200Z,1
2022-09-20T16:05:19.107Z,1
2022-09-20T16:10:19.108Z,1
2022-09-20T16:15:19.167Z,1
2022-09-20T16:20:19.074Z,1
2022-09-20T16:25:19.265Z,0
2022-09-20T16:30:19.191Z,4
2022-09-20T16:35:19.147Z,2
2022-09-20T16:40:16.302Z,2
2022-09-20T16:45:16.339Z,1
2022-09-20T16:50:19.344Z,3
2022-09-20T16:55:19.285Z,1
2022-09-20T17:00:19.218Z,0
2022-09-20T17:05:19.334Z,1
2022-09-20T17:10:19.180Z,1
2022-09-20T17:15:19.219Z,1
2022-09-20T17:20:19.221Z,1
2022-09-20T17:25:19.309Z,2
2022-09-20T17:30:16.266Z,1
2022-09-20T17:35:16.130Z,1
2022-09-20T17:40:19.203Z,2
2022-09-20T17:45:19.197Z,1
2022-09-20T17:50:19.345Z,0
2022-09-20T17:55:19.199Z,1
2022-09-20T18:00:19.217Z,1
2022-09-20T18:05:19.275Z,2
2022-09-20T18:10:19.258Z,1
2022-09-20T18:15:19.337Z,1
2022-09-20T18:20:19.261Z,0
2022-09-20T18:25:16.239Z,0
2022-09-20T18:30:16.221Z,0
2022-09-20T18:35:19.577Z,1
2022-09-20T18:40:19.329Z,0
2022-09-20T18:45:19.211Z,1
2022-09-20T18:50:19.358Z,0
2022-09-20T18:55:19.287Z,1
2022-09-20T19:00:19.294Z,1
2022-09-20T19:05:19.331Z,1
2022-09-20T19:10:19.360Z,1
2022-09-20T19:15:19.344Z,0
2022-09-20T19:20:16.285Z,0
2022-09-20T19:25:19.368Z,1
2022-09-20T19:30:19.343Z,1
2022-09-20T19:35:19.457Z,1
2022-09-20T19:40:19.425Z,1
2022-09-20T19:45:19.451Z,1
2022-09-20T19:50:19.390Z,0
2022-09-20T19:55:19.380Z,2
2022-09-20T20:00:19.453Z,1
2022-09-20T20:05:19.375Z,2
2022-09-20T20:10:16.354Z,0
2022-09-20T20:15:16.347Z,1
2022-09-20T20:20:19.623Z,1
2022-09-20T20:25:19.539Z,1
2022-09-20T20:30:19.486Z,1
2022-09-20T20:35:19.375Z,1
2022-09-20T20:40:19.522Z,0
2022-09-20T20:45:19.424Z,1
2022-09-20T20:50:19.453Z,2
2022-09-20T20:55:19.615Z,2
2022-09-20T21:00:19.391Z,2
2022-09-20T21:05:16.511Z,2
2022-09-20T21:10:16.426Z,1
2022-09-20T21:15:19.594Z,1
2022-09-20T21:20:19.526Z,3
2022-09-20T21:25:19.514Z,3
2022-09-20T21:30:19.635Z,3
2022-09-20T21:35:19.567Z,1
2022-09-20T21:40:19.663Z,2
2022-09-20T21:45:19.734Z,1
2022-09-20T21:50:19.524Z,0
2022-09-20T21:55:19.618Z,1
2022-09-20T22:00:16.543Z,1
2022-09-20T22:05:16.736Z,1
2022-09-20T22:10:19.707Z,1
2022-09-20T22:15:19.740Z,0
2022-09-20T22:20:19.605Z,1
2022-09-20T22:25:19.734Z,1
2022-09-20T22:30:19.645Z,1
2022-09-20T22:35:19.711Z,1
2022-09-20T22:40:19.625Z,2
2022-09-20T22:45:19.517Z,1
2022-09-20T22:50:16.701Z,1
2022-09-20T22:55:16.559Z,0
2022-09-20T23:00:19.689Z,1
2022-09-20T23:05:19.627Z,0
2022-09-20T23:10:19.603Z,1
2022-09-20T23:15:19.731Z,1
2022-09-20T23:20:19.674Z,1
2022-09-20T23:25:19.762Z,0
2022-09-20T23:30:19.709Z,1
2022-09-20T23:35:19.721Z,0
2022-09-20T23:40:19.952Z,0
2022-09-20T23:45:16.614Z,0
2022-09-20T23:50:19.759Z,0
2022-09-20T23:55:19.765Z,0
